Time;durP1;ratioP1;P1;durP2;ratioP2;P2;SDS_P1;SDS_P2;PMS_P1;PMS_P2;Temp;Humidity;BMP_temperature;BMP_pressure;BME280_temperature;BME280_humidity;BME280_pressure;Samples;Min_cycle;Max_cycle;Signal;HPM_P1;HPM_P2
2022/01/14 00:00:09;;;;;;;79.85;13.65;;;;;;;4.90;79.44;101772.09;5092725;28;20044;-61
2022/01/14 00:02:36;;;;;;;160.20;16.92;;;;;;;4.90;79.44;101773.84;5092644;28;20044;-61
2022/01/14 00:05:03;;;;;;;77.07;14.20;;;;;;;4.90;79.32;101784.28;5092764;28;20044;-60
2022/01/14 00:07:29;;;;;;;167.25;14.82;;;;;;;4.90;79.50;101773.84;5091336;28;20056;-61
2022/01/14 00:09:56;;;;;;;146.77;16.75;;;;;;;4.90;79.31;101772.09;5092421;28;20078;-62
2022/01/14 00:12:27;;;;;;;170.15;16.85;;;;;;;4.89;78.95;101765.13;5092781;28;20040;-62
2022/01/14 00:15:00;;;;;;;98.57;13.23;;;;;;;4.88;79.15;101773.84;5091201;28;20040;-61
2022/01/14 00:17:27;;;;;;;115.57;16.65;;;;;;;4.88;79.24;101767.75;5090929;28;20052;-61
2022/01/14 00:19:53;;;;;;;151.18;15.55;;;;;;;4.87;79.36;101761.69;5092124;28;20043;-61
2022/01/14 00:22:22;;;;;;;159.55;15.63;;;;;;;4.86;79.24;101761.69;5092161;28;20044;-63
2022/01/14 00:33:01;;;;;;;235.57;18.58;;;;;;;4.86;79.34;101759.91;5091966;28;20044;-61
2022/01/14 00:35:28;;;;;;;146.18;15.70;;;;;;;4.85;79.23;101749.50;5090968;28;20408;-60
2022/01/14 00:37:55;;;;;;;205.20;16.65;;;;;;;4.85;79.58;101752.97;5092031;28;20048;-62
2022/01/14 00:40:21;;;;;;;260.65;20.80;;;;;;;4.83;79.41;101742.53;5091835;28;20048;-61
2022/01/14 00:42:49;;;;;;;313.63;23.88;;;;;;;4.85;79.43;101741.69;5091780;28;20060;-61
2022/01/14 00:45:16;;;;;;;202.23;17.98;;;;;;;4.85;79.43;101741.69;5091805;28;20101;-60
2022/01/14 00:47:43;;;;;;;182.35;18.33;;;;;;;4.85;79.54;101736.47;5090769;28;20047;-62
2022/01/14 00:50:13;;;;;;;245.15;20.05;;;;;;;4.83;79.43;101739.91;5091674;28;20132;-62
2022/01/14 00:52:41;;;;;;;276.60;21.45;;;;;;;4.83;79.26;101729.47;5090223;28;20097;-61
2022/01/14 00:55:14;;;;;;;286.45;21.40;;;;;;;4.86;79.78;101746.00;5091542;28;20696;-62
2022/01/14 01:00:23;;;;;;;230.32;21.70;;;;;;;4.85;79.44;101741.69;5091245;28;20052;-62
2022/01/14 01:02:50;;;;;;;206.13;19.63;;;;;;;4.87;79.56;101737.31;5090363;28;20079;-62
2022/01/14 01:05:18;;;;;;;260.40;20.92;;;;;;;4.87;79.59;101738.19;5091604;28;20122;-62
2022/01/14 01:07:55;;;;;;;263.92;19.50;;;;;;;4.87;79.74;101738.19;5091544;28;20492;-63
2022/01/14 01:10:23;;;;;;;207.00;18.42;;;;;;;4.89;80.00;101744.25;5091071;28;20109;-61
2022/01/14 01:12:58;;;;;;;111.35;16.70;;;;;;;4.90;79.86;101745.16;5091539;28;20052;-61
2022/01/14 01:15:25;;;;;;;175.90;19.52;;;;;;;4.92;79.97;101743.38;5090124;28;20063;-62
2022/01/14 01:17:51;;;;;;;251.40;21.13;;;;;;;4.94;80.07;101741.66;5091496;28;20055;-62
2022/01/14 01:20:19;;;;;;;215.63;20.67;;;;;;;4.94;79.77;101747.72;5090935;28;20040;-62
2022/01/14 01:22:48;;;;;;;240.77;21.88;;;;;;;4.95;79.82;101743.38;5089772;28;20056;-63
2022/01/14 01:25:18;;;;;;;228.35;19.63;;;;;;;4.98;79.90;101750.34;5091517;28;20063;-61
2022/01/14 01:27:47;;;;;;;172.80;18.33;;;;;;;4.99;80.13;101755.56;5090098;28;20508;-63
2022/01/14 01:32:53;;;;;;;147.80;17.00;;;;;;;5.01;79.85;101748.59;5091040;28;20381;-60
2022/01/14 01:35:20;;;;;;;252.57;21.98;;;;;;;5.00;79.74;101754.69;5089612;28;20094;-60
2022/01/14 01:37:47;;;;;;;236.55;19.50;;;;;;;4.99;79.57;101750.34;5090612;28;20385;-61
2022/01/14 01:40:14;;;;;;;146.68;17.38;;;;;;;5.00;79.95;101746.84;5089431;28;20040;-61
2022/01/14 01:42:45;;;;;;;124.25;17.77;;;;;;;4.98;79.66;101747.75;5089486;28;20389;-62
2022/01/14 01:45:20;;;;;;;195.50;19.48;;;;;;;4.99;80.10;101750.34;5090730;28;20044;-62
2022/01/14 01:47:50;;;;;;;244.25;21.35;;;;;;;5.01;79.90;101751.19;5089511;28;20101;-61
2022/01/14 01:50:20;;;;;;;280.98;23.27;;;;;;;5.02;80.07;101749.47;5089413;28;20142;-61
2022/01/14 01:52:47;;;;;;;217.77;20.98;;;;;;;5.03;79.84;101743.38;5090757;28;20055;-61
2022/01/14 01:55:14;;;;;;;193.13;19.80;;;;;;;5.03;79.72;101746.88;5089402;28;20753;-60
2022/01/14 01:57:45;;;;;;;186.88;18.67;;;;;;;5.04;80.03;101743.38;5090604;28;20121;-61
2022/01/14 02:00:16;;;;;;;253.27;22.90;;;;;;;5.04;79.77;101747.72;5090223;28;20052;-61
2022/01/14 02:02:45;;;;;;;212.63;19.55;;;;;;;5.05;79.90;101746.88;5089306;28;20106;-62
2022/01/14 02:05:11;;;;;;;281.75;20.92;;;;;;;5.06;79.88;101736.44;5089384;28;20052;-62
2022/01/14 02:07:39;;;;;;;196.93;18.67;;;;;;;5.06;79.96;101739.03;5090270;28;20100;-61
2022/01/14 02:10:07;;;;;;;324.73;22.25;;;;;;;5.07;79.80;101739.88;5089056;28;20554;-64
2022/01/14 02:12:38;;;;;;;200.15;19.30;;;;;;;5.07;79.71;101737.28;5090172;28;20059;-61
2022/01/14 02:15:28;;;;;;;277.60;21.65;;;;;;;5.06;79.86;101741.66;5088918;28;20040;-62
2022/01/14 02:22:10;;;;;;;231.15;20.27;;;;;;;5.05;79.63;101723.38;5089843;28;20124;-61
2022/01/14 02:23:30;;;;;;;184.85;16.58;;;;;;;5.08;79.62;101728.56;5090148;28;20097;-62
2022/01/14 02:25:58;;;;;;;264.00;20.75;;;;;;;5.08;79.73;101723.34;5090381;28;20056;-61
2022/01/14 02:28:25;;;;;;;263.80;20.88;;;;;;;5.06;79.81;101728.59;5089976;28;20105;-61
2022/01/14 02:30:52;;;;;;;370.90;23.15;;;;;;;5.06;79.78;101722.50;5089817;28;20052;-62
2022/01/14 02:33:19;;;;;;;226.30;19.45;;;;;;;5.05;79.72;101713.78;5090134;28;20052;-61
2022/01/14 02:35:48;;;;;;;265.73;23.27;;;;;;;5.02;79.64;101703.38;5088816;28;20048;-61
2022/01/14 02:38:16;;;;;;;390.73;29.17;;;;;;;5.03;79.54;101699.88;5088751;28;20511;-62
2022/01/14 02:40:44;;;;;;;239.38;20.60;;;;;;;5.01;79.38;101701.59;5088636;28;20040;-62
2022/01/14 02:43:14;;;;;;;148.25;17.02;;;;;;;5.01;79.73;101695.53;5089914;28;20040;-61
2022/01/14 02:45:51;;;;;;;279.55;22.02;;;;;;;4.98;79.71;101693.81;5088673;28;20093;-61
2022/01/14 02:48:23;;;;;;;289.00;22.63;;;;;;;5.00;80.14;101689.44;5089755;28;20113;-62
2022/01/14 02:56:15;;;;;;;284.92;20.55;;;;;;;5.01;79.83;101692.94;5094007;28;20067;-61
2022/01/14 02:58:42;;;;;;;190.65;18.27;;;;;;;5.03;80.23;101684.22;5093706;28;20052;-63
2022/01/14 03:01:13;;;;;;;352.88;25.92;;;;;;;5.03;80.14;101681.59;5092524;28;20052;-62
2022/01/14 03:03:43;;;;;;;200.57;18.63;;;;;;;5.05;80.07;101674.63;5092723;28;20496;-61
2022/01/14 03:06:11;;;;;;;276.23;23.70;;;;;;;5.07;80.18;101675.50;5093914;28;20050;-62
2022/01/14 03:08:42;;;;;;;245.07;20.30;;;;;;;5.09;80.32;101673.75;5093736;28;20054;-61
2022/01/14 03:11:11;;;;;;;323.98;23.02;;;;;;;5.09;79.99;101678.97;5093446;28;20101;-61
2022/01/14 03:13:39;;;;;;;145.30;16.77;;;;;;;5.11;80.29;101681.56;5092382;28;20052;-62
2022/01/14 03:16:06;;;;;;;224.70;17.50;;;;;;;5.14;80.36;101685.91;5093741;28;20067;-65
2022/01/14 03:18:40;;;;;;;168.10;17.55;;;;;;;5.16;80.21;101678.97;5093686;28;20044;-61
2022/01/14 03:21:11;;;;;;;241.75;18.35;;;;;;;5.17;80.31;101676.34;5092924;28;20048;-61
2022/01/14 03:23:48;;;;;;;180.52;19.98;;;;;;;5.19;80.13;101681.53;5092174;28;20109;-64
2022/01/14 03:26:16;;;;;;;114.10;18.40;;;;;;;5.20;80.24;101671.09;5092349;28;20040;-61
2022/01/14 03:28:43;;;;;;;126.70;18.08;;;;;;;5.21;80.47;101675.44;5092158;28;20389;-61
2022/01/14 03:31:10;;;;;;;128.73;18.80;;;;;;;5.25;80.42;101678.06;5093053;28;20048;-62
2022/01/14 03:33:37;;;;;;;200.40;22.83;;;;;;;5.25;80.43;101672.81;5091961;28;20052;-63
2022/01/14 03:36:05;;;;;;;231.70;19.95;;;;;;;5.27;80.37;101665.88;5093155;28;20105;-63
2022/01/14 03:38:34;;;;;;;149.27;21.33;;;;;;;5.28;80.54;101671.09;5092151;28;20129;-63
2022/01/14 03:41:01;;;;;;;156.80;19.98;;;;;;;5.30;80.59;101677.16;5091786;28;20044;-64
2022/01/14 03:43:28;;;;;;;177.20;21.60;;;;;;;5.31;80.68;101663.22;5091835;28;20051;-61
2022/01/14 03:45:55;;;;;;;209.05;21.48;;;;;;;5.33;80.67;101669.31;5092963;28;20133;-61
2022/01/14 03:48:21;;;;;;;165.20;20.63;;;;;;;5.35;80.43;101659.72;5092979;28;20571;-61
2022/01/14 03:50:48;;;;;;;187.73;21.23;;;;;;;5.37;80.57;101664.94;5092620;28;20093;-62
2022/01/14 03:53:15;;;;;;;184.60;20.20;;;;;;;5.39;80.49;101664.94;5093316;28;20121;-61
2022/01/14 03:55:43;;;;;;;137.90;18.73;;;;;;;5.40;80.51;101653.63;5093001;28;20416;-61
2022/01/14 03:58:30;;;;;;;300.67;25.10;;;;;;;5.43;80.58;101648.38;5093033;28;20048;-61
2022/01/14 04:00:57;;;;;;;257.10;25.63;;;;;;;5.44;80.15;101653.59;5092341;28;20125;-62
2022/01/14 04:03:23;;;;;;;293.88;23.02;;;;;;;5.45;80.26;101654.47;5092828;28;20048;-61
2022/01/14 04:05:50;;;;;;;272.45;24.13;;;;;;;5.44;80.07;101644.91;5092853;28;20117;-61
2022/01/14 04:08:17;;;;;;;348.25;25.63;;;;;;;5.45;80.37;101636.19;5092628;28;20040;-63
2022/01/14 04:10:45;;;;;;;278.23;26.17;;;;;;;5.44;80.31;101648.38;5091213;28;20089;-61
2022/01/14 04:13:19;;;;;;;149.65;19.27;;;;;;;5.44;80.29;101647.50;5092481;28;20056;-61
2022/01/14 04:15:47;;;;;;;321.13;25.98;;;;;;;5.45;80.48;101655.34;5091222;28;20040;-61
2022/01/14 04:18:19;;;;;;;267.30;25.48;;;;;;;5.44;80.17;101650.13;5092585;28;20063;-62
2022/01/14 04:20:49;;;;;;;252.23;25.75;;;;;;;5.46;80.19;101648.38;5090962;28;20044;-60
2022/01/14 04:23:20;;;;;;;348.80;27.80;;;;;;;5.45;80.26;101644.88;5092382;28;20052;-62
2022/01/14 04:25:53;;;;;;;259.15;25.77;;;;;;;5.47;80.36;101644.88;5091104;28;20040;-60
2022/01/14 04:28:22;;;;;;;276.70;26.38;;;;;;;5.47;80.27;101637.06;5090949;28;20044;-61
2022/01/14 04:30:54;;;;;;;312.73;27.48;;;;;;;5.48;80.27;101634.44;5090753;28;20106;-60
2022/01/14 04:33:25;;;;;;;99.20;15.15;;;;;;;5.50;80.22;101633.56;5090883;28;20123;-60
2022/01/14 04:35:54;;;;;;;201.40;22.90;;;;;;;5.52;80.72;101635.28;5092157;28;20044;-61
2022/01/14 04:38:21;;;;;;;149.75;20.42;;;;;;;5.54;80.69;101635.28;5092225;28;20048;-60
2022/01/14 04:40:49;;;;;;;256.77;24.13;;;;;;;5.56;80.57;101638.72;5090339;28;20048;-61
2022/01/14 04:43:19;;;;;;;273.38;26.77;;;;;;;5.57;80.47;101622.19;5092264;28;20500;-61
2022/01/14 04:48:26;;;;;;;137.95;21.67;;;;;;;5.62;80.45;101628.25;5091780;28;20052;-61
2022/01/14 04:50:54;;;;;;;270.35;25.38;;;;;;;5.63;80.56;101622.16;5091525;28;20048;-61
2022/01/14 04:53:21;;;;;;;246.45;26.23;;;;;;;5.64;80.60;101630.88;5090058;28;20549;-61
2022/01/14 04:55:50;;;;;;;129.90;21.65;;;;;;;5.66;80.53;101618.66;5090315;28;20541;-63
2022/01/14 04:58:17;;;;;;;227.13;26.13;;;;;;;5.67;80.63;101609.94;5090398;28;20105;-62
2022/01/14 05:00:44;;;;;;;291.27;27.77;;;;;;;5.69;80.53;101600.34;5090242;28;20044;-61
2022/01/14 05:03:10;;;;;;;281.27;31.15;;;;;;;5.69;80.63;101603.81;5091720;28;20097;-61
2022/01/14 05:05:40;;;;;;;302.88;28.17;;;;;;;5.71;80.30;101593.34;5091445;28;20097;-62
2022/01/14 05:08:11;;;;;;;202.75;26.90;;;;;;;5.72;80.48;101600.34;5091683;28;20109;-61
2022/01/14 05:11:00;;;;;;;187.50;25.45;;;;;;;5.74;80.52;101598.56;5089896;28;20044;-60
2022/01/14 05:13:27;;;;;;;180.55;25.83;;;;;;;5.77;80.49;101597.66;5090888;28;20056;-61
2022/01/14 05:15:54;;;;;;;216.45;29.30;;;;;;;5.76;80.59;101604.66;5091314;28;20052;-61
2022/01/14 05:18:22;;;;;;;271.85;30.52;;;;;;;5.79;80.78;101596.78;5091278;28;20113;-61
2022/01/14 05:20:50;;;;;;;257.83;30.58;;;;;;;5.80;80.11;101597.66;5091070;28;20135;-61
2022/01/14 05:23:17;;;;;;;173.27;24.00;;;;;;;5.81;80.54;101604.63;5091329;28;20450;-61
2022/01/14 05:25:44;;;;;;;289.10;29.08;;;;;;;5.81;80.68;101600.25;5090983;28;20559;-61
2022/01/14 05:28:10;;;;;;;279.67;27.52;;;;;;;5.82;80.81;101591.53;5091195;28;20048;-61
2022/01/14 05:30:37;;;;;;;297.30;27.85;;;;;;;5.83;80.33;101608.09;5090863;28;20438;-61
2022/01/14 05:33:03;;;;;;;257.17;28.77;;;;;;;5.84;80.36;101608.06;5091063;28;20537;-61
2022/01/14 05:35:30;;;;;;;264.92;27.58;;;;;;;5.84;80.36;101605.44;5091256;28;20047;-61
2022/01/14 05:37:57;;;;;;;210.65;24.95;;;;;;;5.84;80.26;101595.00;5091082;28;20105;-62
2022/01/14 05:40:26;;;;;;;164.85;24.02;;;;;;;5.85;80.52;101598.50;5090703;28;20458;-61
2022/01/14 05:42:52;;;;;;;330.48;29.33;;;;;;;5.85;80.24;101585.41;5090744;28;20078;-60
2022/01/14 05:45:19;;;;;;;268.05;29.25;;;;;;;5.85;80.39;101583.69;5090506;28;20488;-63
2022/01/14 05:47:46;;;;;;;198.65;27.58;;;;;;;5.85;80.39;101595.88;5089720;28;20056;-60
2022/01/14 05:50:18;;;;;;;245.02;27.20;;;;;;;5.82;80.08;101591.53;5090535;28;20051;-61
2022/01/14 05:52:45;;;;;;;325.35;29.65;;;;;;;5.85;80.30;101590.66;5090556;28;20055;-63
2022/01/14 05:55:15;;;;;;;242.45;26.85;;;;;;;5.84;80.37;101586.31;5089708;28;20549;-60
2022/01/14 05:57:42;;;;;;;260.48;28.65;;;;;;;5.85;80.30;101586.31;5089264;28;20055;-61
2022/01/14 06:00:12;;;;;;;205.95;27.65;;;;;;;5.84;80.33;101581.94;5090854;28;20063;-62
2022/01/14 06:02:39;;;;;;;260.40;28.48;;;;;;;5.86;80.29;101584.53;5089533;28;20097;-60
2022/01/14 06:05:06;;;;;;;173.30;24.02;;;;;;;5.86;80.33;101580.19;5090607;28;20075;-63
2022/01/14 06:07:33;;;;;;;138.43;25.48;;;;;;;5.85;80.42;101565.38;5090561;28;20492;-62
2022/01/14 06:09:59;;;;;;;132.07;25.88;;;;;;;5.86;80.36;101563.63;5090001;28;20044;-61
2022/01/14 06:12:26;;;;;;;180.32;27.20;;;;;;;5.87;80.48;101579.28;5089729;28;20112;-61
2022/01/14 06:14:52;;;;;;;257.08;29.50;;;;;;;5.87;80.50;101575.84;5090337;28;20101;-61
2022/01/14 06:17:19;;;;;;;199.18;25.83;;;;;;;5.87;80.73;101561.00;5089100;28;20101;-61
2022/01/14 06:19:46;;;;;;;280.55;29.02;;;;;;;5.89;80.65;101561.00;5090110;28;20105;-60
2022/01/14 06:22:12;;;;;;;194.77;23.98;;;;;;;5.90;80.49;101565.34;5090021;28;20169;-61
2022/01/14 06:24:39;;;;;;;162.48;22.55;;;;;;;5.92;80.29;101571.44;5090385;28;20077;-61
2022/01/14 06:27:06;;;;;;;132.50;23.33;;;;;;;5.93;80.51;101577.50;5088845;28;20052;-61
2022/01/14 06:29:32;;;;;;;212.65;26.70;;;;;;;5.93;80.05;101567.94;5088830;28;20048;-62
2022/01/14 06:31:59;;;;;;;165.15;24.13;;;;;;;5.93;80.13;101562.69;5089945;28;20138;-60
2022/01/14 06:34:26;;;;;;;134.27;23.15;;;;;;;5.93;79.95;101559.22;5090086;28;20048;-62
2022/01/14 06:36:53;;;;;;;335.10;31.15;;;;;;;5.92;79.82;101544.41;5089747;28;20101;-61
2022/01/14 06:39:19;;;;;;;185.95;23.63;;;;;;;5.91;79.83;101547.91;5089790;28;20048;-62
2022/01/14 06:41:46;;;;;;;200.25;24.67;;;;;;;5.90;80.07;101544.44;5089273;28;20097;-61
2022/01/14 06:44:12;;;;;;;146.07;22.60;;;;;;;5.90;79.88;101546.19;5088740;28;20105;-63
2022/01/14 06:46:39;;;;;;;105.22;24.17;;;;;;;5.87;79.79;101542.72;5090353;28;20076;-61
2022/01/14 06:49:06;;;;;;;206.60;27.27;;;;;;;5.86;79.71;101534.88;5090122;28;20101;-62
2022/01/14 06:51:32;;;;;;;80.10;24.45;;;;;;;5.85;79.78;101531.41;5089823;28;20546;-61
2022/01/14 06:53:59;;;;;;;152.75;24.05;;;;;;;5.82;79.87;101534.03;5090012;28;20048;-61
2022/01/14 06:56:26;;;;;;;139.73;22.50;;;;;;;5.81;80.00;101532.31;5088664;28;20055;-62
2022/01/14 06:58:52;;;;;;;124.63;20.63;;;;;;;5.83;80.34;101529.69;5089985;28;20048;-61
2022/01/14 07:01:19;;;;;;;129.90;23.35;;;;;;;5.82;80.41;101539.28;5088035;28;20090;-61
2022/01/14 07:03:46;;;;;;;100.18;21.05;;;;;;;5.82;80.35;101541.88;5089286;28;20484;-62
2022/01/14 07:06:12;;;;;;;115.95;23.65;;;;;;;5.83;80.33;101538.38;5088684;28;20747;-61
2022/01/14 07:08:39;;;;;;;95.30;21.83;;;;;;;5.85;80.53;101543.59;5089557;28;20048;-62
2022/01/14 07:11:06;;;;;;;75.05;21.45;;;;;;;5.86;80.36;101551.44;5089560;28;20097;-62
2022/01/14 07:13:33;;;;;;;61.05;19.83;;;;;;;5.89;80.53;101581.03;5088976;28;20120;-62
2022/01/14 07:16:03;;;;;;;76.35;19.00;;;;;;;5.90;80.40;101588.84;5089531;28;20048;-61
2022/01/14 07:18:30;;;;;;;85.88;20.45;;;;;;;5.92;80.41;101599.31;5089543;28;20044;-62
2022/01/14 07:20:56;;;;;;;96.75;20.83;;;;;;;5.94;80.62;101598.41;5089633;28;20048;-61
2022/01/14 07:23:23;;;;;;;50.92;19.65;;;;;;;5.97;80.43;101597.50;5089137;28;20109;-61
2022/01/14 07:25:49;;;;;;;68.05;20.17;;;;;;;5.99;80.24;101606.22;5089989;28;20109;-61
2022/01/14 07:28:16;;;;;;;45.90;19.10;;;;;;;6.02;80.49;101605.34;5090095;28;20060;-61
2022/01/14 07:30:42;;;;;;;48.60;21.65;;;;;;;6.02;80.35;101608.78;5089589;28;20048;-62
2022/01/14 07:33:09;;;;;;;56.22;20.33;;;;;;;6.04;80.32;101607.09;5090153;28;20055;-61
2022/01/14 07:35:38;;;;;;;51.65;19.90;;;;;;;6.06;80.08;101609.69;5091391;28;20113;-62
2022/01/14 07:38:04;;;;;;;74.60;20.08;;;;;;;6.08;80.01;101615.75;5093178;28;20055;-62
2022/01/14 07:40:31;;;;;;;125.80;21.13;;;;;;;6.10;80.30;101622.72;5092947;28;20122;-62
2022/01/14 07:42:57;;;;;;;87.55;20.23;;;;;;;6.13;79.97;101621.81;5093504;28;20454;-65
2022/01/14 07:45:24;;;;;;;82.28;19.92;;;;;;;6.13;80.05;101620.09;5093328;28;20484;-62
2022/01/14 07:47:51;;;;;;;112.55;21.85;;;;;;;6.14;79.92;101623.56;5093297;28;20052;-61
2022/01/14 07:50:22;;;;;;;65.00;20.33;;;;;;;6.15;79.92;101627.91;5092967;28;20043;-61
2022/01/14 07:52:49;;;;;;;82.88;19.08;;;;;;;6.15;79.75;101621.81;5092163;28;20484;-61
2022/01/14 07:55:16;;;;;;;78.03;19.30;;;;;;;6.15;79.85;101625.31;5093390;28;20085;-64
2022/01/14 07:57:42;;;;;;;61.20;18.23;;;;;;;6.16;79.72;101623.56;5092987;28;20101;-62
2022/01/14 08:00:10;;;;;;;72.80;20.13;;;;;;;6.16;80.01;101634.88;5091774;28;20040;-61
2022/01/14 08:02:37;;;;;;;116.75;19.80;;;;;;;6.19;80.00;101636.59;5093000;28;20059;-62
2022/01/14 08:05:04;;;;;;;151.48;19.17;;;;;;;6.18;79.73;101645.31;5092907;28;20059;-62
2022/01/14 08:07:33;;;;;;;132.95;19.52;;;;;;;6.19;79.65;101647.06;5091826;28;20036;-62
2022/01/14 08:10:00;;;;;;;128.88;18.70;;;;;;;6.19;79.93;101647.94;5091451;28;20484;-62
2022/01/14 08:12:27;;;;;;;183.55;21.58;;;;;;;6.19;79.87;101644.44;5092812;28;20077;-62
2022/01/14 08:14:53;;;;;;;197.60;21.17;;;;;;;6.19;79.75;101631.38;5092683;28;20393;-62
2022/01/14 08:17:21;;;;;;;218.75;23.20;;;;;;;6.19;79.70;101633.97;5092582;28;20044;-61
2022/01/14 08:19:49;;;;;;;228.88;22.08;;;;;;;6.19;79.79;101637.47;5092909;28;20052;-60
2022/01/14 08:22:15;;;;;;;202.65;21.20;;;;;;;6.19;79.83;101627.00;5092205;28;20048;-62
2022/01/14 08:24:42;;;;;;;185.25;20.40;;;;;;;6.19;79.68;101634.84;5092588;28;20044;-62
2022/01/14 08:27:08;;;;;;;243.90;21.23;;;;;;;6.18;79.45;101634.88;5092657;28;20110;-64
2022/01/14 08:29:35;;;;;;;167.77;20.20;;;;;;;6.18;79.39;101629.63;5092364;28;20063;-61
2022/01/14 08:32:02;;;;;;;192.65;21.63;;;;;;;6.19;79.57;101636.59;5092352;28;20132;-61
2022/01/14 08:34:29;;;;;;;196.48;23.10;;;;;;;6.18;79.59;101633.13;5092899;28;20109;-63
2022/01/14 08:36:56;;;;;;;199.30;20.20;;;;;;;6.17;79.84;101640.97;5092423;28;20047;-61
2022/01/14 08:39:23;;;;;;;207.60;21.05;;;;;;;6.18;79.52;101646.19;5092268;28;20044;-64
2022/01/14 08:41:50;;;;;;;255.82;23.58;;;;;;;6.19;79.62;101637.47;5092180;28;20101;-63
2022/01/14 08:44:17;;;;;;;269.45;22.23;;;;;;;6.18;79.53;101635.75;5092093;28;20040;-61
2022/01/14 08:46:49;;;;;;;260.98;23.27;;;;;;;6.18;79.51;101638.34;5091392;28;20044;-64
2022/01/14 08:49:16;;;;;;;242.27;21.75;;;;;;;6.18;79.90;101632.25;5091997;28;20047;-61
2022/01/14 08:51:43;;;;;;;262.05;21.48;;;;;;;6.18;79.56;101645.31;5092150;28;20056;-62
2022/01/14 08:54:09;;;;;;;111.82;16.17;;;;;;;6.18;79.92;101656.66;5091928;28;20101;-62
2022/01/14 08:56:36;;;;;;;128.43;17.25;;;;;;;6.20;79.81;101656.66;5092032;28;20454;-62
2022/01/14 08:59:04;;;;;;;201.88;19.38;;;;;;;6.21;79.93;101666.22;5091938;28;20060;-65
2022/01/14 09:01:31;;;;;;;237.30;23.73;;;;;;;6.22;79.88;101674.06;5090577;28;20052;-61
2022/01/14 09:03:58;;;;;;;212.82;21.63;;;;;;;6.23;79.89;101674.91;5091983;28;20472;-61
2022/01/14 09:06:25;;;;;;;166.90;19.38;;;;;;;6.23;79.71;101672.31;5091689;28;20191;-62
2022/01/14 09:08:52;;;;;;;150.68;18.75;;;;;;;6.25;79.77;101679.25;5091848;28;20056;-63
2022/01/14 09:11:19;;;;;;;195.20;20.23;;;;;;;6.27;80.06;101676.63;5091385;28;20044;-60
2022/01/14 09:13:46;;;;;;;230.68;21.35;;;;;;;6.28;79.92;101669.66;5090256;28;20048;-61
2022/01/14 09:16:13;;;;;;;179.38;20.27;;;;;;;6.30;79.79;101678.34;5091969;28;20052;-62
2022/01/14 09:18:40;;;;;;;181.38;21.98;;;;;;;6.31;79.75;101673.09;5091526;28;20134;-63
2022/01/14 09:21:06;;;;;;;247.65;24.15;;;;;;;6.32;79.46;101658.31;5091109;28;20044;-61
2022/01/14 09:23:34;;;;;;;203.02;21.30;;;;;;;6.33;79.45;101670.50;5091273;28;20040;-61
2022/01/14 09:26:01;;;;;;;118.88;19.58;;;;;;;6.33;79.59;101660.03;5091414;28;20056;-62
2022/01/14 09:28:28;;;;;;;245.45;24.20;;;;;;;6.32;79.35;101664.38;5091124;28;20056;-62
2022/01/14 09:30:56;;;;;;;193.43;23.70;;;;;;;6.32;79.40;101663.53;5091284;28;20385;-63
2022/01/14 09:33:23;;;;;;;164.32;21.95;;;;;;;6.32;79.75;101660.91;5091198;28;20055;-61
2022/01/14 09:35:49;;;;;;;177.93;21.48;;;;;;;6.32;79.87;101666.16;5091144;28;20109;-61
2022/01/14 09:38:17;;;;;;;175.23;22.48;;;;;;;6.32;80.00;101663.53;5091130;28;20488;-62
2022/01/14 09:40:49;;;;;;;104.78;20.10;;;;;;;6.33;79.61;101675.72;5089430;28;20503;-62
2022/01/14 09:43:16;;;;;;;176.20;23.58;;;;;;;6.34;80.06;101667.88;5089708;28;20491;-63
2022/01/14 09:46:00;;;;;;;151.93;21.20;;;;;;;6.35;79.71;101666.97;5091164;28;20040;-61
2022/01/14 09:48:27;;;;;;;59.58;20.38;;;;;;;6.37;80.16;101669.59;5091183;28;20051;-63
2022/01/14 09:50:53;;;;;;;104.40;20.33;;;;;;;6.38;80.38;101666.97;5090702;28;20116;-62
2022/01/14 09:53:20;;;;;;;107.75;22.00;;;;;;;6.39;80.43;101671.31;5090837;28;20105;-61
2022/01/14 09:55:47;;;;;;;74.70;20.10;;;;;;;6.42;80.14;101673.03;5090733;28;20613;-62
2022/01/14 09:58:14;;;;;;;105.05;22.60;;;;;;;6.45;80.38;101683.47;5090720;28;20065;-61
2022/01/14 10:00:40;;;;;;;131.80;25.30;;;;;;;6.47;79.78;101679.06;5090772;28;20077;-61
2022/01/14 10:03:24;;;;;;;111.53;23.10;;;;;;;6.46;79.75;101679.97;5090340;28;20546;-69
2022/01/14 10:05:56;;;;;;;99.45;22.73;;;;;;;6.49;79.75;101677.31;5090469;28;20044;-62
2022/01/14 10:08:26;;;;;;;128.95;23.63;;;;;;;6.53;80.23;101674.69;5089412;28;20051;-62
2022/01/14 10:10:55;;;;;;;170.95;26.88;;;;;;;6.54;80.08;101673.81;5089189;28;20419;-64
2022/01/14 10:13:24;;;;;;;94.20;22.52;;;;;;;6.53;79.64;101675.53;5090627;28;20827;-61
2022/01/14 10:15:53;;;;;;;70.68;23.73;;;;;;;6.53;79.42;101678.16;5089087;28;20052;-61
2022/01/14 10:18:22;;;;;;;93.07;25.98;;;;;;;6.51;79.75;101675.56;5088997;28;20078;-62
2022/01/14 10:20:49;;;;;;;101.97;26.38;;;;;;;6.51;79.71;101682.56;5088343;28;20558;-62
2022/01/14 10:23:17;;;;;;;59.95;23.40;;;;;;;6.49;79.59;101679.94;5090055;28;20476;-62
2022/01/14 10:25:56;;;;;;;48.17;21.38;;;;;;;6.47;79.67;101681.69;5090354;28;20051;-64
2022/01/14 10:28:23;;;;;;;50.55;23.33;;;;;;;6.53;80.52;101677.31;5089202;28;20047;-60
2022/01/14 10:30:49;;;;;;;64.35;27.77;;;;;;;6.54;80.59;101687.72;5090079;28;20052;-64
2022/01/14 10:33:27;;;;;;;51.63;25.27;;;;;;;6.53;79.94;101672.06;5090390;28;20052;-61
2022/01/14 10:35:55;;;;;;;49.83;23.88;;;;;;;6.57;80.33;101664.16;5089018;28;20112;-62
2022/01/14 10:38:23;;;;;;;50.35;25.35;;;;;;;6.59;80.05;101665.03;5089039;28;20052;-62
2022/01/14 10:40:55;;;;;;;50.88;24.15;;;;;;;6.61;80.38;101658.03;5088843;28;20048;-61
2022/01/14 10:43:29;;;;;;;56.97;27.45;;;;;;;6.64;80.28;101655.38;5088666;28;20484;-61
2022/01/14 10:45:57;;;;;;;50.08;24.30;;;;;;;6.67;80.21;101653.59;5090226;28;20048;-61
2022/01/14 10:48:54;;;;;;;59.15;25.55;;;;;;;6.65;79.98;101644.03;5088640;28;20574;-63
2022/01/14 10:51:20;;;;;;;45.92;25.13;;;;;;;6.71;80.49;101647.47;5087734;28;20059;-62
2022/01/14 10:53:53;;;;;;;54.28;26.48;;;;;;;6.71;80.13;101642.22;5088675;28;20052;-62
2022/01/14 10:56:23;;;;;;;49.67;26.73;;;;;;;6.75;80.60;101638.69;5090241;28;20051;-61
2022/01/14 10:58:56;;;;;;;53.72;26.05;;;;;;;6.78;80.19;101643.91;5090152;28;20056;-61
2022/01/14 11:01:24;;;;;;;;;;;;;;;6.81;79.07;101643.88;5089122;28;20507;-62
2022/01/14 11:04:10;;;;;;;61.15;25.73;;;;;;;6.85;80.00;101644.72;5088560;28;19989;-62
2022/01/14 11:06:41;;;;;;;50.65;23.13;;;;;;;6.86;80.05;101651.66;5090064;28;20056;-61
2022/01/14 11:09:17;;;;;;;50.72;25.30;;;;;;;6.88;80.31;101656.00;5088580;28;20135;-63
2022/01/14 11:11:49;;;;;;;52.58;25.30;;;;;;;6.88;79.82;101650.75;5092316;28;20060;-61
2022/01/14 11:14:16;;;;;;;52.97;23.73;;;;;;;6.93;80.42;101655.09;5092649;28;20059;-62
2022/01/14 11:16:43;;;;;;;50.25;23.02;;;;;;;6.95;80.64;101642.88;5092635;28;20119;-62
2022/01/14 11:19:13;;;;;;;48.53;24.00;;;;;;;6.96;80.38;101634.13;5092469;28;20047;-65
2022/01/14 11:24:26;;;;;;;48.60;23.33;;;;;;;6.99;79.94;101649.78;5093640;28;20044;-61
2022/01/14 11:26:57;;;;;;;51.55;22.88;;;;;;;6.99;79.92;101668.97;5093462;28;20048;-63
2022/01/14 11:29:31;;;;;;;51.75;23.60;;;;;;;6.98;79.38;101664.63;5092452;28;20051;-62
2022/01/14 11:32:00;;;;;;;44.15;21.42;;;;;;;7.00;80.04;101665.47;5092626;28;20044;-61
2022/01/14 11:34:29;;;;;;;46.72;22.38;;;;;;;7.00;79.73;101664.63;5092178;28;21280;-63
2022/01/14 11:37:04;;;;;;;48.92;22.60;;;;;;;7.00;79.61;101662.00;5093515;28;20040;-61
2022/01/14 11:39:36;;;;;;;43.20;20.77;;;;;;;7.02;80.11;101661.09;5093131;28;20060;-63
2022/01/14 11:42:08;;;;;;;53.35;21.52;;;;;;;7.03;79.46;101665.44;5093677;28;20052;-62
2022/01/14 11:44:43;;;;;;;49.42;22.50;;;;;;;7.04;79.22;101658.47;5092142;28;20076;-61